Time;durP1;ratioP1;P1;durP2;ratioP2;P2;SDS_P1;SDS_P2;PMS_P1;PMS_P2;Temp;Humidity;BMP_temperature;BMP_pressure;BME280_temperature;BME280_humidity;BME280_pressure;Samples;Min_cycle;Max_cycle;Signal;HPM_P1;HPM_P2
2023/08/07 00:01:33;;;;;;;15.93;10.00;;;13.60;99.90;;;;;;5091052;28;20226;-69
2023/08/07 00:04:20;;;;;;;21.27;11.43;;;13.60;99.90;;;;;;5091496;28;20214;-68
2023/08/07 00:07:08;;;;;;;16.37;11.47;;;13.60;99.90;;;;;;5091235;28;20198;-68
2023/08/07 00:09:55;;;;;;;16.97;11.33;;;13.60;99.90;;;;;;5106428;28;20202;-68
2023/08/07 00:12:42;;;;;;;17.73;11.83;;;13.50;99.90;;;;;;5110963;28;20283;-68
2023/08/07 00:15:30;;;;;;;22.03;11.90;;;13.50;99.90;;;;;;5111605;28;20209;-68
2023/08/07 00:18:18;;;;;;;18.37;12.03;;;13.50;99.90;;;;;;5111216;28;20566;-68
2023/08/07 00:21:06;;;;;;;19.83;11.83;;;13.50;99.90;;;;;;5111468;28;20197;-69
2023/08/07 00:23:54;;;;;;;18.37;12.50;;;13.50;99.90;;;;;;5110732;28;20193;-69
2023/08/07 00:26:42;;;;;;;19.67;13.03;;;13.50;99.90;;;;;;5111405;28;20227;-69
2023/08/07 00:29:29;;;;;;;21.30;13.43;;;13.40;99.90;;;;;;5110981;28;20215;-69
2023/08/07 00:32:16;;;;;;;22.87;14.90;;;13.40;99.90;;;;;;5111158;28;20202;-69
2023/08/07 00:35:08;;;;;;;24.00;14.27;;;13.40;99.90;;;;;;5110942;28;20204;-68
2023/08/07 00:37:55;;;;;;;24.23;14.83;;;13.40;99.90;;;;;;5110487;28;20197;-68
2023/08/07 00:40:42;;;;;;;21.37;12.97;;;13.50;99.90;;;;;;5110551;28;20202;-68
2023/08/07 00:43:29;;;;;;;24.77;14.10;;;13.50;99.90;;;;;;5111313;28;20297;-69
2023/08/07 00:46:17;;;;;;;20.40;12.33;;;13.40;99.90;;;;;;5111235;28;20222;-68
2023/08/07 00:49:04;;;;;;;21.13;13.80;;;13.50;99.90;;;;;;5111167;28;20685;-68
2023/08/07 00:51:53;;;;;;;19.97;13.67;;;13.50;99.90;;;;;;5110415;28;20217;-68
2023/08/07 00:54:40;;;;;;;20.10;13.57;;;13.60;99.90;;;;;;5111094;28;20283;-68
2023/08/07 00:57:27;;;;;;;21.83;13.37;;;13.60;99.90;;;;;;5111115;28;20208;-69
2023/08/07 01:00:16;;;;;;;22.37;13.33;;;13.50;99.90;;;;;;5110851;28;20260;-68
2023/08/07 01:03:05;;;;;;;24.17;13.60;;;13.50;99.90;;;;;;5110908;28;20204;-68
2023/08/07 01:05:53;;;;;;;19.53;13.30;;;13.60;99.90;;;;;;5113183;28;20213;-69
2023/08/07 01:08:41;;;;;;;19.37;12.70;;;13.50;99.90;;;;;;5114644;28;20214;-68
2023/08/07 01:11:34;;;;;;;19.27;12.77;;;13.60;99.90;;;;;;5114303;28;20199;-68
2023/08/07 01:14:24;;;;;;;21.07;13.23;;;13.50;99.90;;;;;;5114893;28;20195;-68
2023/08/07 01:17:12;;;;;;;20.53;13.17;;;13.60;99.90;;;;;;5114150;28;20224;-68
2023/08/07 01:20:00;;;;;;;19.83;14.17;;;13.50;99.90;;;;;;5114625;28;20218;-68
2023/08/07 01:22:48;;;;;;;20.20;13.33;;;13.50;99.90;;;;;;5114443;28;20568;-68
2023/08/07 01:25:37;;;;;;;21.40;13.47;;;13.60;99.90;;;;;;5115198;28;20217;-68
2023/08/07 01:28:28;;;;;;;20.30;13.77;;;13.50;99.90;;;;;;5114228;28;20216;-68
2023/08/07 01:31:15;;;;;;;21.30;13.27;;;13.60;99.90;;;;;;5113522;28;20224;-68
2023/08/07 01:34:06;;;;;;;21.67;15.40;;;13.60;99.90;;;;;;5114454;28;20208;-68
2023/08/07 01:36:53;;;;;;;24.13;14.17;;;13.60;99.90;;;;;;5114723;28;20284;-68
2023/08/07 01:39:42;;;;;;;27.30;15.43;;;13.60;99.90;;;;;;5114255;28;20194;-68
2023/08/07 01:42:29;;;;;;;22.87;15.07;;;13.60;99.90;;;;;;5114171;28;20239;-68
2023/08/07 01:45:23;;;;;;;24.17;15.40;;;13.60;99.90;;;;;;5114165;28;20217;-68
2023/08/07 01:48:11;;;;;;;22.17;16.00;;;13.60;99.90;;;;;;5113366;28;20210;-68
2023/08/07 01:50:58;;;;;;;26.87;14.73;;;13.60;99.90;;;;;;5113889;28;20553;-68
2023/08/07 01:53:47;;;;;;;21.40;15.60;;;13.60;99.90;;;;;;5113494;28;20209;-68
2023/08/07 01:56:36;;;;;;;23.03;15.50;;;13.60;99.90;;;;;;5110931;28;20196;-68
2023/08/07 01:59:23;;;;;;;24.60;15.77;;;13.60;99.90;;;;;;5098690;28;20196;-68
2023/08/07 02:02:10;;;;;;;24.97;16.70;;;13.50;99.90;;;;;;5113860;28;20270;-69
2023/08/07 02:04:58;;;;;;;23.70;16.20;;;13.50;99.90;;;;;;5113177;28;20202;-69
2023/08/07 02:07:45;;;;;;;22.07;16.03;;;13.60;99.90;;;;;;5113557;28;20203;-68
2023/08/07 02:10:32;;;;;;;24.73;16.13;;;13.60;99.90;;;;;;5093874;28;20205;-68
2023/08/07 02:13:21;;;;;;;23.00;16.40;;;13.50;99.90;;;;;;5106704;28;20209;-69
2023/08/07 02:16:08;;;;;;;25.40;16.20;;;13.50;99.90;;;;;;5113066;28;20206;-69
2023/08/07 02:18:56;;;;;;;25.10;17.10;;;13.50;99.90;;;;;;5113576;28;20200;-68
2023/08/07 02:21:43;;;;;;;24.23;15.50;;;13.60;99.90;;;;;;5113329;28;20196;-68
2023/08/07 02:24:30;;;;;;;21.20;14.13;;;13.50;99.90;;;;;;5113386;28;20226;-68
2023/08/07 02:27:17;;;;;;;22.10;15.07;;;13.60;99.90;;;;;;5113365;28;20200;-69
2023/08/07 02:30:07;;;;;;;22.63;15.80;;;13.60;99.90;;;;;;5113091;28;20224;-69
2023/08/07 02:32:54;;;;;;;21.87;16.00;;;13.60;99.90;;;;;;5112715;28;20201;-69
2023/08/07 02:35:42;;;;;;;22.30;14.57;;;13.60;99.90;;;;;;5112835;28;20204;-68
2023/08/07 02:38:29;;;;;;;21.17;15.80;;;13.60;99.90;;;;;;5113018;28;20244;-69
2023/08/07 02:41:16;;;;;;;26.93;15.47;;;13.60;99.90;;;;;;5113014;28;20194;-68
2023/08/07 02:44:04;;;;;;;21.77;14.30;;;13.60;99.90;;;;;;5112382;28;20202;-69
2023/08/07 02:46:53;;;;;;;23.27;15.20;;;13.60;99.90;;;;;;5112892;28;20207;-68
2023/08/07 02:49:40;;;;;;;23.23;15.87;;;13.50;99.90;;;;;;5112730;28;20225;-69
2023/08/07 02:52:27;;;;;;;18.20;13.97;;;13.50;99.90;;;;;;5112700;28;20589;-68
2023/08/07 02:55:15;;;;;;;21.90;15.70;;;13.60;99.90;;;;;;5113118;28;20207;-69
2023/08/07 02:58:02;;;;;;;19.43;14.00;;;13.60;99.90;;;;;;5111831;28;20193;-68
2023/08/07 03:00:49;;;;;;;20.47;13.57;;;13.60;99.90;;;;;;5112409;28;20219;-68
2023/08/07 03:03:38;;;;;;;18.23;13.43;;;13.60;99.90;;;;;;5111968;28;20221;-69
2023/08/07 03:06:25;;;;;;;18.33;13.43;;;13.60;99.90;;;;;;5112412;28;20201;-68
2023/08/07 03:09:13;;;;;;;20.20;13.80;;;13.60;99.90;;;;;;5111939;28;20216;-68
2023/08/07 03:12:03;;;;;;;21.87;13.60;;;13.60;99.90;;;;;;5112793;28;20579;-69
2023/08/07 03:14:50;;;;;;;21.13;14.03;;;13.60;99.90;;;;;;5111532;28;20199;-69
2023/08/07 03:17:37;;;;;;;21.07;13.73;;;13.60;99.90;;;;;;5112055;28;20206;-69
2023/08/07 03:20:26;;;;;;;21.20;13.10;;;13.60;99.90;;;;;;5112308;28;20197;-69
2023/08/07 03:23:13;;;;;;;22.60;14.13;;;13.60;99.90;;;;;;5112227;28;20273;-69
2023/08/07 03:26:04;;;;;;;19.47;12.30;;;13.60;99.90;;;;;;5111564;28;20212;-68
2023/08/07 03:28:52;;;;;;;14.80;12.10;;;13.60;99.90;;;;;;5110720;28;20211;-69
2023/08/07 03:31:39;;;;;;;14.87;11.93;;;13.60;99.90;;;;;;5111542;28;20213;-69
2023/08/07 03:34:26;;;;;;;14.87;11.80;;;13.60;99.90;;;;;;5111325;28;20209;-68
2023/08/07 03:37:15;;;;;;;17.10;11.60;;;13.70;99.90;;;;;;5111930;28;20198;-69
2023/08/07 03:40:02;;;;;;;21.13;12.23;;;13.70;99.90;;;;;;5111782;28;20214;-69
2023/08/07 03:42:49;;;;;;;18.83;11.67;;;13.70;99.90;;;;;;5111618;28;20696;-68
2023/08/07 03:45:37;;;;;;;17.13;11.90;;;13.70;99.90;;;;;;5111951;28;20216;-69
2023/08/07 03:48:24;;;;;;;16.27;11.00;;;13.60;99.90;;;;;;5111042;28;20194;-68
2023/08/07 03:51:11;;;;;;;17.43;11.00;;;13.70;99.90;;;;;;5111635;28;20717;-69
2023/08/07 03:54:00;;;;;;;16.27;11.13;;;13.70;99.90;;;;;;5111645;28;20674;-68
2023/08/07 03:56:48;;;;;;;12.83;10.30;;;13.70;99.90;;;;;;5112281;28;20203;-68
2023/08/07 03:59:35;;;;;;;15.87;10.43;;;13.70;99.90;;;;;;5110913;28;20194;-68
2023/08/07 04:02:23;;;;;;;14.97;10.20;;;13.70;99.90;;;;;;5111564;28;20688;-68
2023/08/07 04:05:10;;;;;;;13.37;10.30;;;13.70;99.90;;;;;;5111364;28;20211;-68
2023/08/07 04:07:57;;;;;;;14.97;9.70;;;13.70;99.90;;;;;;5111451;28;20222;-68
2023/08/07 04:10:46;;;;;;;12.20;8.93;;;13.70;99.90;;;;;;5090808;28;20573;-70
2023/08/07 04:13:33;;;;;;;10.57;9.03;;;13.80;99.90;;;;;;5090588;28;20204;-69
2023/08/07 04:16:21;;;;;;;12.87;8.67;;;13.80;99.90;;;;;;5090944;28;20202;-68
2023/08/07 04:19:09;;;;;;;13.53;8.87;;;13.70;99.90;;;;;;5090633;28;20197;-68
2023/08/07 04:21:56;;;;;;;13.00;9.60;;;13.70;99.90;;;;;;5091188;28;20679;-68
2023/08/07 04:24:43;;;;;;;12.30;9.23;;;13.70;99.90;;;;;;5090309;28;20689;-69
2023/08/07 04:27:32;;;;;;;13.77;8.83;;;13.70;99.90;;;;;;5090484;28;20683;-68
2023/08/07 04:30:19;;;;;;;12.37;8.53;;;13.70;99.90;;;;;;5090377;28;20214;-67
2023/08/07 04:33:07;;;;;;;13.57;9.80;;;13.70;99.90;;;;;;5089782;28;20200;-68
2023/08/07 04:35:54;;;;;;;12.90;9.97;;;13.70;99.90;;;;;;5090115;28;20199;-69
2023/08/07 04:38:41;;;;;;;12.17;9.20;;;13.70;99.90;;;;;;5090311;28;20220;-68
2023/08/07 04:41:28;;;;;;;12.80;8.93;;;13.80;99.90;;;;;;5094022;28;20200;-70
2023/08/07 04:44:17;;;;;;;12.93;8.90;;;13.80;99.90;;;;;;5094425;28;20608;-68
2023/08/07 04:47:05;;;;;;;13.30;8.90;;;13.80;99.90;;;;;;5094538;28;20593;-68
2023/08/07 04:49:53;;;;;;;11.03;7.90;;;13.80;99.90;;;;;;5094202;28;20219;-68
2023/08/07 04:52:40;;;;;;;11.07;9.13;;;13.70;99.90;;;;;;5094037;28;20213;-68
2023/08/07 04:55:27;;;;;;;10.70;8.17;;;13.80;99.90;;;;;;5094203;28;20200;-69
2023/08/07 04:58:15;;;;;;;12.33;7.40;;;13.80;99.90;;;;;;5094157;28;20620;-68
2023/08/07 05:01:04;;;;;;;13.33;7.37;;;13.80;99.90;;;;;;5094200;28;20228;-68
2023/08/07 05:03:51;;;;;;;11.13;7.33;;;13.70;99.90;;;;;;5102606;28;20725;-68
2023/08/07 05:06:38;;;;;;;8.50;6.07;;;13.70;99.90;;;;;;5114834;28;20200;-69
2023/08/07 05:09:26;;;;;;;9.10;5.93;;;13.70;99.90;;;;;;5114828;28;20588;-69
2023/08/07 05:12:13;;;;;;;8.63;5.33;;;13.70;99.90;;;;;;5114248;28;20205;-69
2023/08/07 05:15:00;;;;;;;10.57;4.90;;;13.70;99.90;;;;;;5114642;28;20716;-68
2023/08/07 05:17:49;;;;;;;8.10;5.53;;;13.70;99.90;;;;;;5114595;28;20200;-68
2023/08/07 05:20:36;;;;;;;8.20;4.90;;;13.60;99.90;;;;;;5113940;28;20213;-69
2023/08/07 05:23:24;;;;;;;6.27;4.83;;;13.60;99.90;;;;;;5114456;28;20201;-68
2023/08/07 05:26:11;;;;;;;9.60;4.80;;;13.70;99.90;;;;;;5114116;28;20196;-69
2023/08/07 05:28:58;;;;;;;8.80;4.70;;;13.60;99.90;;;;;;5114278;28;20213;-69
2023/08/07 05:31:46;;;;;;;6.60;3.93;;;13.60;99.90;;;;;;5113842;28;20559;-68
2023/08/07 05:34:34;;;;;;;4.77;2.93;;;13.60;99.90;;;;;;5113846;28;20198;-67
2023/08/07 05:37:21;;;;;;;5.23;3.80;;;13.60;99.90;;;;;;5114347;28;20199;-69
2023/08/07 05:40:11;;;;;;;3.77;2.90;;;13.50;99.90;;;;;;5114119;28;20213;-69
2023/08/07 05:42:59;;;;;;;3.47;1.50;;;13.50;99.90;;;;;;5114262;28;20286;-68
2023/08/07 05:45:46;;;;;;;3.60;2.57;;;13.50;99.90;;;;;;5114223;28;20208;-67
2023/08/07 05:48:33;;;;;;;5.63;2.10;;;13.40;99.90;;;;;;5113943;28;20197;-67
2023/08/07 05:51:22;;;;;;;3.90;2.47;;;13.50;99.90;;;;;;5112918;28;20218;-67
2023/08/07 05:54:09;;;;;;;2.77;2.20;;;13.50;99.90;;;;;;5113255;28;20201;-68
2023/08/07 05:56:56;;;;;;;4.73;2.63;;;13.50;99.90;;;;;;5113799;28;20602;-69
2023/08/07 05:59:44;;;;;;;5.83;2.73;;;13.30;99.90;;;;;;5113320;28;20219;-69
2023/08/07 06:02:31;;;;;;;4.03;2.30;;;13.30;99.90;;;;;;5113271;28;20281;-68
2023/08/07 06:05:19;;;;;;;4.73;3.17;;;13.40;99.90;;;;;;5112595;28;20681;-67
2023/08/07 06:08:08;;;;;;;4.17;2.80;;;13.30;99.90;;;;;;5113733;28;20206;-67
2023/08/07 06:10:56;;;;;;;4.03;2.90;;;13.40;99.90;;;;;;5093562;28;20391;-67
2023/08/07 06:13:43;;;;;;;3.63;2.93;;;13.40;99.90;;;;;;5092750;28;20200;-68
2023/08/07 06:16:30;;;;;;;3.50;3.20;;;13.40;99.90;;;;;;5092496;28;20548;-68
2023/08/07 06:19:17;;;;;;;2.50;2.30;;;13.30;99.90;;;;;;5092609;28;20199;-67
2023/08/07 06:22:06;;;;;;;5.63;2.90;;;13.40;99.90;;;;;;5092384;28;20202;-67
2023/08/07 06:24:54;;;;;;;6.20;2.93;;;13.40;99.90;;;;;;5092611;28;20210;-68
2023/08/07 06:27:41;;;;;;;2.90;2.70;;;13.40;99.90;;;;;;5093295;28;20197;-68
2023/08/07 06:30:29;;;;;;;3.77;2.73;;;13.50;99.90;;;;;;5092353;28;20226;-68
2023/08/07 06:33:16;;;;;;;3.00;2.70;;;13.50;99.90;;;;;;5092814;28;20207;-69
2023/08/07 06:36:04;;;;;;;4.47;3.37;;;13.50;99.90;;;;;;5092043;28;20209;-69
2023/08/07 06:38:51;;;;;;;3.57;3.27;;;13.30;99.90;;;;;;5091866;28;20209;-69
2023/08/07 06:41:40;;;;;;;4.83;3.23;;;13.40;99.90;;;;;;5091887;28;20680;-68
2023/08/07 06:44:27;;;;;;;3.47;3.10;;;13.40;99.90;;;;;;5091857;28;20661;-69
2023/08/07 06:47:14;;;;;;;4.80;3.37;;;13.40;99.90;;;;;;5091412;28;20200;-69
2023/08/07 06:50:01;;;;;;;5.20;3.27;;;13.40;99.90;;;;;;5091837;28;20235;-69
2023/08/07 06:52:49;;;;;;;4.40;3.40;;;13.40;99.90;;;;;;5091864;28;20246;-69
2023/08/07 06:55:36;;;;;;;4.63;3.97;;;13.50;99.90;;;;;;5091723;28;20218;-68
2023/08/07 06:58:25;;;;;;;4.63;3.70;;;13.40;99.90;;;;;;5092279;28;20566;-69
2023/08/07 07:01:12;;;;;;;5.13;4.40;;;13.50;99.90;;;;;;5091285;28;20218;-68
2023/08/07 07:03:59;;;;;;;5.17;4.07;;;13.50;99.90;;;;;;5101922;28;20197;-68
2023/08/07 07:06:46;;;;;;;6.83;4.20;;;13.60;99.90;;;;;;5112744;28;20658;-69
2023/08/07 07:09:34;;;;;;;3.93;3.53;;;13.60;99.90;;;;;;5112500;28;20680;-68
2023/08/07 07:12:21;;;;;;;5.17;3.70;;;13.60;99.90;;;;;;5112075;28;20202;-68
2023/08/07 07:15:11;;;;;;;4.07;3.67;;;13.70;99.90;;;;;;5112310;28;20195;-69
2023/08/07 07:17:59;;;;;;;5.87;3.70;;;13.70;99.90;;;;;;5113470;28;20660;-69
2023/08/07 07:20:46;;;;;;;4.07;3.53;;;13.70;99.90;;;;;;5112167;28;20198;-68
2023/08/07 07:23:34;;;;;;;6.60;3.80;;;13.80;99.90;;;;;;5112141;28;20202;-69
2023/08/07 07:26:21;;;;;;;4.40;3.43;;;13.80;99.90;;;;;;5111498;28;20209;-69
2023/08/07 07:29:08;;;;;;;3.40;3.00;;;13.70;99.90;;;;;;5112133;28;20286;-69
2023/08/07 07:31:57;;;;;;;8.10;3.40;;;13.70;99.90;;;;;;5112014;28;20652;-68
2023/08/07 07:34:44;;;;;;;3.30;3.00;;;13.80;99.90;;;;;;5111624;28;20198;-69
2023/08/07 07:37:32;;;;;;;3.63;3.33;;;13.80;99.90;;;;;;5112255;28;20209;-69
2023/08/07 07:40:19;;;;;;;4.17;2.90;;;13.80;99.90;;;;;;5112189;28;20673;-69
2023/08/07 07:43:06;;;;;;;4.07;2.60;;;13.80;99.90;;;;;;5111753;28;20195;-69
2023/08/07 07:45:53;;;;;;;3.10;2.80;;;13.80;99.90;;;;;;5110613;28;20195;-70
2023/08/07 07:48:42;;;;;;;2.70;2.50;;;13.90;99.90;;;;;;5111969;28;20206;-70
2023/08/07 07:51:30;;;;;;;3.93;3.10;;;13.90;99.90;;;;;;5111534;28;20223;-69
2023/08/07 07:54:17;;;;;;;3.30;2.40;;;13.90;99.90;;;;;;5111434;28;20199;-69
2023/08/07 07:57:05;;;;;;;3.40;3.10;;;14.00;99.90;;;;;;5111693;28;20202;-69
2023/08/07 07:59:52;;;;;;;2.53;2.33;;;13.90;99.90;;;;;;5111315;28;20230;-70
2023/08/07 08:02:40;;;;;;;2.73;2.50;;;14.00;99.90;;;;;;5110406;28;20218;-69
2023/08/07 08:05:29;;;;;;;4.23;2.90;;;13.90;99.90;;;;;;5111177;28;20222;-69
2023/08/07 08:08:17;;;;;;;2.60;2.40;;;13.90;99.90;;;;;;5110762;28;20595;-69
2023/08/07 08:11:04;;;;;;;6.53;2.47;;;14.00;99.90;;;;;;5110571;28;20229;-69
2023/08/07 08:13:51;;;;;;;3.23;2.67;;;13.90;99.90;;;;;;5109996;28;20196;-70
2023/08/07 08:16:38;;;;;;;3.17;2.67;;;13.90;99.90;;;;;;5110838;28;20205;-69
2023/08/07 08:19:26;;;;;;;3.40;3.10;;;14.00;99.90;;;;;;5110948;28;20204;-70
2023/08/07 08:22:14;;;;;;;3.30;3.00;;;14.00;99.90;;;;;;5111554;28;20208;-69
2023/08/07 08:25:04;;;;;;;5.03;3.00;;;14.00;99.90;;;;;;5111046;28;20213;-70
2023/08/07 08:27:52;;;;;;;2.60;2.40;;;14.00;99.90;;;;;;5110024;28;20203;-69
2023/08/07 08:30:39;;;;;;;2.93;2.57;;;14.00;99.90;;;;;;5110793;28;20218;-71
2023/08/07 08:33:26;;;;;;;2.80;2.60;;;14.00;99.90;;;;;;5109988;28;20232;-69
2023/08/07 08:36:13;;;;;;;3.17;2.50;;;14.00;99.90;;;;;;5110327;28;20195;-70
2023/08/07 08:39:02;;;;;;;4.17;2.40;;;14.00;99.90;;;;;;5110041;28;20203;-70
2023/08/07 08:41:51;;;;;;;2.73;2.50;;;14.00;99.90;;;;;;5111267;28;20191;-69
2023/08/07 08:44:39;;;;;;;2.40;2.20;;;14.00;99.90;;;;;;5110615;28;20195;-69
2023/08/07 08:47:26;;;;;;;2.40;2.20;;;14.10;99.90;;;;;;5110431;28;20524;-69
2023/08/07 08:50:15;;;;;;;3.43;2.00;;;14.10;99.90;;;;;;5110114;28;20225;-69
2023/08/07 08:53:03;;;;;;;4.87;2.40;;;14.10;99.90;;;;;;5109773;28;20214;-69
2023/08/07 08:55:52;;;;;;;6.73;2.50;;;14.10;99.90;;;;;;5110685;28;20209;-70
2023/08/07 08:58:39;;;;;;;3.50;2.67;;;14.10;99.90;;;;;;5110652;28;20209;-69
2023/08/07 09:01:26;;;;;;;2.50;2.30;;;14.20;99.90;;;;;;5110334;28;20278;-67
2023/08/07 09:04:14;;;;;;;2.20;2.00;;;14.10;99.90;;;;;;5110434;28;20199;-68
2023/08/07 09:07:01;;;;;;;2.97;2.67;;;14.00;99.90;;;;;;5111054;28;20203;-69
2023/08/07 09:09:48;;;;;;;3.20;3.00;;;13.80;99.90;;;;;;5110927;28;20558;-69
2023/08/07 09:12:37;;;;;;;3.87;2.60;;;13.90;99.90;;;;;;5110491;28;20272;-68
2023/08/07 09:15:24;;;;;;;3.90;2.90;;;13.80;99.90;;;;;;5110860;28;20195;-70
2023/08/07 09:18:12;;;;;;;3.70;3.17;;;13.80;99.90;;;;;;5110447;28;20197;-70
2023/08/07 09:20:59;;;;;;;4.23;3.00;;;13.80;99.90;;;;;;5111018;28;20568;-69
2023/08/07 09:23:46;;;;;;;4.47;4.07;;;13.80;99.90;;;;;;5110843;28;20566;-70
2023/08/07 09:26:34;;;;;;;7.10;3.97;;;13.90;99.90;;;;;;5111274;28;20198;-70
2023/08/07 09:29:23;;;;;;;5.03;4.03;;;14.00;99.90;;;;;;5114499;28;20206;-70
2023/08/07 09:32:12;;;;;;;5.90;4.30;;;14.00;99.90;;;;;;5114068;28;20256;-70
2023/08/07 09:35:00;;;;;;;4.53;4.10;;;13.90;99.90;;;;;;5113287;28;20196;-69
2023/08/07 09:37:47;;;;;;;7.17;4.30;;;14.00;99.90;;;;;;5114458;28;20260;-70
2023/08/07 09:40:34;;;;;;;4.57;3.80;;;14.10;99.90;;;;;;5113456;28;20206;-70
2023/08/07 09:43:22;;;;;;;5.80;3.50;;;14.00;99.90;;;;;;5114254;28;20199;-70
2023/08/07 09:46:11;;;;;;;3.73;3.10;;;14.10;99.90;;;;;;5113241;28;20244;-70
2023/08/07 09:48:58;;;;;;;3.70;3.07;;;14.10;99.90;;;;;;5113726;28;20250;-69
2023/08/07 09:51:46;;;;;;;7.63;2.63;;;14.30;99.90;;;;;;5113397;28;20219;-70
2023/08/07 09:54:33;;;;;;;2.50;2.30;;;14.40;99.90;;;;;;5114019;28;20195;-69
2023/08/07 09:57:20;;;;;;;2.30;2.10;;;14.40;99.90;;;;;;5113925;28;20210;-69
2023/08/07 10:00:11;;;;;;;3.80;2.37;;;14.30;99.90;;;;;;5113627;28;20230;-70
2023/08/07 10:03:00;;;;;;;2.60;2.40;;;14.30;99.90;;;;;;5112727;28;20213;-70
2023/08/07 10:05:47;;;;;;;4.20;2.70;;;14.20;99.90;;;;;;5112510;28;20240;-70
2023/08/07 10:08:35;;;;;;;5.73;2.33;;;14.30;99.90;;;;;;5114198;28;20190;-70
2023/08/07 10:11:22;;;;;;;2.30;2.10;;;14.30;99.90;;;;;;5112707;28;20220;-70
2023/08/07 10:14:09;;;;;;;3.43;2.20;;;14.40;99.90;;;;;;5113558;28;20657;-70
2023/08/07 10:16:57;;;;;;;2.73;2.50;;;14.40;99.90;;;;;;5113110;28;20202;-70
2023/08/07 10:19:46;;;;;;;3.77;2.10;;;14.50;99.90;;;;;;5112822;28;20218;-70
2023/08/07 10:22:33;;;;;;;4.47;2.60;;;14.50;99.90;;;;;;5113345;28;20676;-70
2023/08/07 10:25:21;;;;;;;3.90;2.50;;;14.50;99.90;;;;;;5112856;28;20273;-69
2023/08/07 10:28:10;;;;;;;3.40;3.10;;;14.50;99.90;;;;;;5113235;28;20203;-70
2023/08/07 10:30:57;;;;;;;5.93;3.10;;;14.80;99.90;;;;;;5112463;28;20222;-71
2023/08/07 10:33:44;;;;;;;3.70;2.77;;;15.00;99.90;;;;;;5112763;28;20211;-70
2023/08/07 10:36:35;;;;;;;3.07;2.40;;;15.30;99.90;;;;;;5112705;28;20210;-71
2023/08/07 10:39:22;;;;;;;5.47;2.63;;;15.30;99.90;;;;;;5112905;28;20604;-70
2023/08/07 10:42:09;;;;;;;1.57;1.47;;;15.20;99.90;;;;;;5113006;28;20187;-71
2023/08/07 10:44:57;;;;;;;4.03;2.13;;;15.10;99.90;;;;;;5113080;28;20221;-71
2023/08/07 10:47:44;;;;;;;2.50;2.03;;;15.10;99.90;;;;;;5112116;28;20210;-70
2023/08/07 10:50:32;;;;;;;2.60;2.20;;;15.20;99.90;;;;;;5112801;28;20214;-70
2023/08/07 10:53:29;;;;;;;5.20;2.20;;;15.40;99.90;;;;;;5112044;28;20221;-70
2023/08/07 10:56:18;;;;;;;5.37;1.60;;;15.80;99.90;;;;;;5112318;28;20199;-70
2023/08/07 10:59:09;;;;;;;1.97;1.70;;;15.70;99.90;;;;;;5112730;28;20195;-70
2023/08/07 11:01:56;;;;;;;6.13;1.80;;;15.70;99.90;;;;;;5112421;28;20654;-71
2023/08/07 11:04:44;;;;;;;3.40;1.53;;;15.40;99.90;;;;;;5112457;28;20202;-71
2023/08/07 11:07:31;;;;;;;1.83;1.67;;;15.60;99.90;;;;;;5112325;28;20203;-70
2023/08/07 11:10:20;;;;;;;3.40;2.00;;;15.60;99.90;;;;;;5112867;28;20606;-71
2023/08/07 11:13:07;;;;;;;2.80;1.50;;;15.90;99.90;;;;;;5112351;28;20195;-69
2023/08/07 11:15:54;;;;;;;13.37;5.80;;;15.70;99.90;;;;;;5111795;28;20202;-68
2023/08/07 11:18:42;;;;;;;19.30;7.87;;;14.90;99.90;;;;;;5111895;28;20534;-67
2023/08/07 11:21:30;;;;;;;9.03;3.57;;;14.30;99.90;;;;;;5112178;28;20210;-68
2023/08/07 11:24:19;;;;;;;8.60;3.60;;;14.10;99.90;;;;;;5111448;28;20197;-68
2023/08/07 11:27:08;;;;;;;5.60;2.97;;;13.70;99.90;;;;;;5111690;28;20225;-68
2023/08/07 11:29:56;;;;;;;5.73;3.37;;;13.50;99.90;;;;;;5111896;28;20211;-68
2023/08/07 11:32:43;;;;;;;7.20;2.80;;;13.80;99.90;;;;;;5112281;28;20222;-68
2023/08/07 11:35:30;;;;;;;4.67;2.93;;;13.90;99.90;;;;;;5111367;28;20195;-67
2023/08/07 11:38:30;;;;;;;3.57;2.23;;;14.00;99.90;;;;;;5111942;28;20194;-68
2023/08/07 11:41:18;;;;;;;4.73;2.70;;;14.00;99.90;;;;;;5111412;28;20395;-68
2023/08/07 11:44:08;;;;;;;6.03;2.60;;;14.00;99.90;;;;;;5111231;28;20661;-68
2023/08/07 11:46:56;;;;;;;3.20;2.30;;;13.90;99.90;;;;;;5111682;28;20670;-68
2023/08/07 11:49:43;;;;;;;3.57;2.30;;;13.90;99.90;;;;;;5110660;28;20194;-68
2023/08/07 11:52:30;;;;;;;4.53;2.60;;;13.90;99.90;;;;;;5110967;28;20218;-68
2023/08/07 11:55:18;;;;;;;3.83;2.30;;;13.90;99.90;;;;;;5111756;28;20205;-67
2023/08/07 11:58:05;;;;;;;4.50;2.53;;;13.80;99.90;;;;;;5110887;28;20204;-68
2023/08/07 12:00:54;;;;;;;6.17;2.80;;;13.80;99.90;;;;;;5111409;28;20281;-68
2023/08/07 12:03:43;;;;;;;4.60;2.53;;;13.50;99.90;;;;;;5110964;28;20219;-68
2023/08/07 12:06:30;;;;;;;5.13;2.20;;;13.70;99.90;;;;;;5111499;28;20200;-69
2023/08/07 12:09:18;;;;;;;4.73;2.53;;;13.70;99.90;;;;;;5112103;28;20201;-68
2023/08/07 12:12:06;;;;;;;12.63;2.37;;;13.80;99.90;;;;;;5110970;28;20236;-69
2023/08/07 12:14:54;;;;;;;3.37;2.30;;;13.80;99.90;;;;;;5111517;28;20209;-68
2023/08/07 12:17:43;;;;;;;4.87;2.53;;;13.90;99.90;;;;;;5111480;28;20230;-68
2023/08/07 12:20:30;;;;;;;5.10;2.53;;;13.80;99.90;;;;;;5111341;28;20556;-68
2023/08/07 12:23:17;;;;;;;6.87;2.37;;;13.90;99.90;;;;;;5111406;28;20199;-69
2023/08/07 12:26:06;;;;;;;3.67;2.40;;;14.00;99.90;;;;;;5110770;28;20195;-69
2023/08/07 12:28:54;;;;;;;5.57;2.27;;;13.60;99.90;;;;;;5110830;28;20206;-69
2023/08/07 12:31:41;;;;;;;4.77;2.63;;;13.80;99.90;;;;;;5111025;28;20750;-69
2023/08/07 12:34:30;;;;;;;5.93;2.40;;;13.90;99.90;;;;;;5110622;28;20202;-69
2023/08/07 12:37:17;;;;;;;4.27;2.60;;;13.90;99.90;;;;;;5110605;28;20694;-69
2023/08/07 12:40:05;;;;;;;5.07;2.70;;;13.90;99.90;;;;;;5110645;28;20191;-68
2023/08/07 12:42:53;;;;;;;4.33;3.27;;;13.80;99.90;;;;;;5111344;28;20199;-69
2023/08/07 12:45:40;;;;;;;8.33;3.70;;;13.70;99.90;;;;;;5110456;28;20214;-69
2023/08/07 12:48:28;;;;;;;5.47;3.43;;;13.70;99.90;;;;;;5110557;28;20195;-70
2023/08/07 12:51:17;;;;;;;7.20;3.80;;;13.50;99.90;;;;;;5111014;28;20217;-68
2023/08/07 12:54:04;;;;;;;7.67;3.83;;;13.50;99.90;;;;;;5110734;28;20203;-69
2023/08/07 12:56:52;;;;;;;5.83;3.33;;;13.40;99.90;;;;;;5111099;28;20206;-69
2023/08/07 12:59:39;;;;;;;4.53;3.00;;;13.30;99.90;;;;;;5111003;28;20772;-70
2023/08/07 13:02:26;;;;;;;5.73;3.50;;;13.20;99.90;;;;;;5114584;28;20666;-68
2023/08/07 13:05:14;;;;;;;6.10;3.63;;;13.30;99.90;;;;;;5114191;28;20199;-69
2023/08/07 13:08:03;;;;;;;9.20;3.90;;;13.40;99.90;;;;;;5114758;28;20198;-69
2023/08/07 13:10:50;;;;;;;9.20;4.43;;;13.50;99.90;;;;;;5094936;28;20676;-69
2023/08/07 13:13:38;;;;;;;9.37;5.23;;;13.50;99.90;;;;;;5093679;28;20198;-69
2023/08/07 13:16:25;;;;;;;9.47;5.20;;;13.60;99.90;;;;;;5094860;28;20200;-69
2023/08/07 13:19:12;;;;;;;7.43;5.40;;;13.60;99.90;;;;;;5093584;28;20199;-70
2023/08/07 13:21:59;;;;;;;13.57;7.00;;;13.50;99.90;;;;;;5093620;28;20210;-68
2023/08/07 13:24:48;;;;;;;11.37;7.17;;;13.50;99.90;;;;;;5093770;28;20205;-68
2023/08/07 13:27:36;;;;;;;13.27;6.90;;;13.50;99.90;;;;;;5093527;28;20286;-68
2023/08/07 13:30:23;;;;;;;10.30;6.77;;;13.50;99.90;;;;;;5093685;28;20575;-69
2023/08/07 13:33:10;;;;;;;11.10;6.50;;;13.60;99.90;;;;;;5093273;28;20212;-68
2023/08/07 13:35:57;;;;;;;11.93;6.13;;;13.50;99.90;;;;;;5093209;28;20206;-67
2023/08/07 13:38:45;;;;;;;8.87;5.30;;;13.50;99.90;;;;;;5092940;28;20274;-67
2023/08/07 13:41:33;;;;;;;10.00;5.67;;;13.50;99.90;;;;;;5093654;28;20195;-68
2023/08/07 13:44:22;;;;;;;9.73;5.30;;;13.50;99.90;;;;;;5093302;28;20207;-69
2023/08/07 13:47:10;;;;;;;9.77;5.33;;;13.30;99.90;;;;;;5092989;28;20288;-69
2023/08/07 13:49:58;;;;;;;8.00;4.90;;;13.30;99.90;;;;;;5093871;28;20202;-70
2023/08/07 13:52:45;;;;;;;9.27;5.63;;;13.40;99.90;;;;;;5094792;28;20232;-69
2023/08/07 13:55:32;;;;;;;13.07;6.53;;;13.40;99.90;;;;;;5092789;28;20202;-69
2023/08/07 13:58:21;;;;;;;12.37;6.67;;;13.30;99.90;;;;;;5093391;28;20199;-69
2023/08/07 14:01:08;;;;;;;11.07;6.83;;;13.40;99.90;;;;;;5091983;28;20231;-68
2023/08/07 14:03:56;;;;;;;12.57;7.00;;;13.40;99.90;;;;;;5101317;28;20206;-69
2023/08/07 14:06:44;;;;;;;12.43;7.27;;;13.40;99.90;;;;;;5114400;28;20206;-70
2023/08/07 14:09:31;;;;;;;9.83;6.77;;;13.40;99.90;;;;;;5113541;28;20205;-68
2023/08/07 14:12:18;;;;;;;13.00;7.90;;;13.40;99.90;;;;;;5112029;28;20240;-69
2023/08/07 14:15:08;;;;;;;13.90;7.40;;;13.20;99.90;;;;;;5113156;28;20208;-69
2023/08/07 14:17:55;;;;;;;15.70;8.10;;;13.30;99.90;;;;;;5113694;28;20203;-69
2023/08/07 14:20:42;;;;;;;14.00;7.63;;;13.40;99.90;;;;;;5113421;28;20651;-70
2023/08/07 14:23:29;;;;;;;13.30;8.00;;;13.40;99.90;;;;;;5113416;28;20664;-69
2023/08/07 14:26:17;;;;;;;11.50;7.00;;;13.40;99.90;;;;;;5113419;28;20199;-70